sensor_id;sensor_type;location;lat;lon;timestamp;P1;durP1;ratioP1;P2;durP2;ratioP2
17658;SDS011;8948;51.534;8.262;2023-03-20T00:03:42;44.77;;;20.17;;
17658;SDS011;8948;51.534;8.262;2023-03-20T00:08:43;44.83;;;19.63;;
17658;SDS011;8948;51.534;8.262;2023-03-20T00:13:44;49.07;;;22.10;;
17658;SDS011;8948;51.534;8.262;2023-03-20T00:18:45;46.53;;;22.10;;
17658;SDS011;8948;51.534;8.262;2023-03-20T00:23:46;46.37;;;21.53;;
17658;SDS011;8948;51.534;8.262;2023-03-20T00:28:47;45.50;;;20.60;;
17658;SDS011;8948;51.534;8.262;2023-03-20T00:33:48;42.27;;;20.77;;
17658;SDS011;8948;51.534;8.262;2023-03-20T00:38:49;47.20;;;22.80;;
17658;SDS011;8948;51.534;8.262;2023-03-20T00:44:01;41.57;;;21.63;;
17658;SDS011;8948;51.534;8.262;2023-03-20T00:49:19;42.13;;;22.80;;
17658;SDS011;8948;51.534;8.262;2023-03-20T00:54:28;49.40;;;23.40;;
17658;SDS011;8948;51.534;8.262;2023-03-20T00:59:30;48.97;;;23.80;;
17658;SDS011;8948;51.534;8.262;2023-03-20T01:04:35;53.87;;;23.70;;
17658;SDS011;8948;51.534;8.262;2023-03-20T01:09:38;49.93;;;23.33;;
17658;SDS011;8948;51.534;8.262;2023-03-20T01:14:38;51.17;;;24.43;;
17658;SDS011;8948;51.534;8.262;2023-03-20T01:19:39;53.20;;;23.97;;
17658;SDS011;8948;51.534;8.262;2023-03-20T01:24:40;52.03;;;24.10;;
17658;SDS011;8948;51.534;8.262;2023-03-20T01:29:41;51.47;;;24.60;;
17658;SDS011;8948;51.534;8.262;2023-03-20T01:34:42;52.87;;;24.33;;
17658;SDS011;8948;51.534;8.262;2023-03-20T01:39:43;57.27;;;26.23;;
17658;SDS011;8948;51.534;8.262;2023-03-20T01:44:44;53.60;;;25.13;;
17658;SDS011;8948;51.534;8.262;2023-03-20T01:55:25;51.23;;;23.43;;
17658;SDS011;8948;51.534;8.262;2023-03-20T02:00:26;56.60;;;25.47;;
17658;SDS011;8948;51.534;8.262;2023-03-20T02:05:26;58.47;;;27.27;;
17658;SDS011;8948;51.534;8.262;2023-03-20T02:10:27;78.03;;;34.63;;
17658;SDS011;8948;51.534;8.262;2023-03-20T02:15:28;91.87;;;43.60;;
17658;SDS011;8948;51.534;8.262;2023-03-20T02:20:32;96.90;;;44.83;;
17658;SDS011;8948;51.534;8.262;2023-03-20T02:26:01;127.33;;;55.37;;
17658;SDS011;8948;51.534;8.262;2023-03-20T02:47:07;133.00;;;56.77;;
17658;SDS011;8948;51.534;8.262;2023-03-20T03:02:47;131.00;;;56.77;;
17658;SDS011;8948;51.534;8.262;2023-03-20T03:08:10;115.73;;;54.97;;
17658;SDS011;8948;51.534;8.262;2023-03-20T03:13:16;116.47;;;55.63;;
17658;SDS011;8948;51.534;8.262;2023-03-20T03:18:22;120.37;;;56.17;;
17658;SDS011;8948;51.534;8.262;2023-03-20T03:28:32;93.77;;;46.37;;
17658;SDS011;8948;51.534;8.262;2023-03-20T03:33:39;95.03;;;46.70;;
17658;SDS011;8948;51.534;8.262;2023-03-20T03:38:58;100.90;;;49.40;;
17658;SDS011;8948;51.534;8.262;2023-03-20T03:49:36;88.53;;;44.80;;
17658;SDS011;8948;51.534;8.262;2023-03-20T03:55:15;89.83;;;45.87;;
17658;SDS011;8948;51.534;8.262;2023-03-20T04:00:15;90.47;;;47.10;;
17658;SDS011;8948;51.534;8.262;2023-03-20T04:05:19;71.87;;;39.07;;
17658;SDS011;8948;51.534;8.262;2023-03-20T04:10:20;56.33;;;30.77;;
17658;SDS011;8948;51.534;8.262;2023-03-20T04:15:21;69.07;;;36.87;;
17658;SDS011;8948;51.534;8.262;2023-03-20T04:20:22;65.63;;;36.23;;
17658;SDS011;8948;51.534;8.262;2023-03-20T04:25:23;62.13;;;33.87;;
17658;SDS011;8948;51.534;8.262;2023-03-20T04:30:25;63.33;;;35.97;;
17658;SDS011;8948;51.534;8.262;2023-03-20T04:35:26;54.20;;;30.27;;
17658;SDS011;8948;51.534;8.262;2023-03-20T04:40:27;59.07;;;31.87;;
17658;SDS011;8948;51.534;8.262;2023-03-20T04:45:27;59.40;;;31.90;;
17658;SDS011;8948;51.534;8.262;2023-03-20T04:50:28;52.50;;;27.87;;
17658;SDS011;8948;51.534;8.262;2023-03-20T04:55:28;58.87;;;28.20;;
17658;SDS011;8948;51.534;8.262;2023-03-20T05:00:29;58.10;;;28.33;;
17658;SDS011;8948;51.534;8.262;2023-03-20T05:05:30;62.53;;;28.70;;
17658;SDS011;8948;51.534;8.262;2023-03-20T05:10:30;53.10;;;24.40;;
17658;SDS011;8948;51.534;8.262;2023-03-20T05:15:31;35.97;;;18.67;;
17658;SDS011;8948;51.534;8.262;2023-03-20T05:20:32;34.90;;;18.57;;
17658;SDS011;8948;51.534;8.262;2023-03-20T05:25:32;30.23;;;18.57;;
17658;SDS011;8948;51.534;8.262;2023-03-20T05:30:33;40.80;;;20.47;;
17658;SDS011;8948;51.534;8.262;2023-03-20T05:35:33;36.07;;;20.87;;
17658;SDS011;8948;51.534;8.262;2023-03-20T05:40:34;34.77;;;19.57;;
17658;SDS011;8948;51.534;8.262;2023-03-20T05:45:35;32.80;;;19.73;;
17658;SDS011;8948;51.534;8.262;2023-03-20T05:50:35;31.90;;;19.03;;
17658;SDS011;8948;51.534;8.262;2023-03-20T05:55:36;30.97;;;18.77;;
17658;SDS011;8948;51.534;8.262;2023-03-20T06:00:37;30.30;;;18.67;;
17658;SDS011;8948;51.534;8.262;2023-03-20T06:05:38;28.77;;;16.37;;
17658;SDS011;8948;51.534;8.262;2023-03-20T06:10:38;28.13;;;16.87;;
17658;SDS011;8948;51.534;8.262;2023-03-20T06:15:39;28.27;;;17.13;;
17658;SDS011;8948;51.534;8.262;2023-03-20T06:20:40;27.73;;;16.23;;
17658;SDS011;8948;51.534;8.262;2023-03-20T06:25:41;26.47;;;16.83;;
17658;SDS011;8948;51.534;8.262;2023-03-20T06:30:42;26.17;;;16.03;;
17658;SDS011;8948;51.534;8.262;2023-03-20T06:35:44;26.40;;;15.90;;
17658;SDS011;8948;51.534;8.262;2023-03-20T06:40:45;27.93;;;15.93;;
17658;SDS011;8948;51.534;8.262;2023-03-20T06:45:46;25.47;;;15.87;;
17658;SDS011;8948;51.534;8.262;2023-03-20T06:50:47;27.40;;;15.37;;
17658;SDS011;8948;51.534;8.262;2023-03-20T06:55:49;24.67;;;14.90;;
17658;SDS011;8948;51.534;8.262;2023-03-20T07:00:50;26.07;;;16.53;;
17658;SDS011;8948;51.534;8.262;2023-03-20T07:05:51;25.47;;;15.17;;
17658;SDS011;8948;51.534;8.262;2023-03-20T07:10:52;27.97;;;16.17;;
17658;SDS011;8948;51.534;8.262;2023-03-20T07:15:53;27.10;;;15.87;;
17658;SDS011;8948;51.534;8.262;2023-03-20T07:20:57;24.93;;;15.67;;
17658;SDS011;8948;51.534;8.262;2023-03-20T07:26:01;29.70;;;16.17;;
17658;SDS011;8948;51.534;8.262;2023-03-20T07:31:02;29.93;;;17.07;;
17658;SDS011;8948;51.534;8.262;2023-03-20T07:36:03;28.63;;;16.53;;
17658;SDS011;8948;51.534;8.262;2023-03-20T07:41:04;29.17;;;17.17;;
17658;SDS011;8948;51.534;8.262;2023-03-20T07:46:05;29.13;;;17.20;;
17658;SDS011;8948;51.534;8.262;2023-03-20T07:51:07;30.33;;;17.27;;
17658;SDS011;8948;51.534;8.262;2023-03-20T07:56:07;31.33;;;17.63;;
17658;SDS011;8948;51.534;8.262;2023-03-20T08:01:08;28.87;;;16.93;;
17658;SDS011;8948;51.534;8.262;2023-03-20T08:06:09;30.70;;;17.63;;
17658;SDS011;8948;51.534;8.262;2023-03-20T08:11:10;29.20;;;16.43;;
17658;SDS011;8948;51.534;8.262;2023-03-20T08:16:11;27.90;;;17.13;;
17658;SDS011;8948;51.534;8.262;2023-03-20T08:21:11;29.73;;;17.03;;
17658;SDS011;8948;51.534;8.262;2023-03-20T08:26:12;22.93;;;13.73;;
17658;SDS011;8948;51.534;8.262;2023-03-20T08:31:13;23.20;;;14.07;;
17658;SDS011;8948;51.534;8.262;2023-03-20T08:36:14;30.43;;;13.60;;
17658;SDS011;8948;51.534;8.262;2023-03-20T08:41:18;20.90;;;12.17;;
17658;SDS011;8948;51.534;8.262;2023-03-20T08:46:19;20.97;;;11.57;;
17658;SDS011;8948;51.534;8.262;2023-03-20T08:51:19;16.27;;;9.73;;
17658;SDS011;8948;51.534;8.262;2023-03-20T08:56:20;19.23;;;10.20;;
17658;SDS011;8948;51.534;8.262;2023-03-20T09:01:20;18.77;;;10.57;;
17658;SDS011;8948;51.534;8.262;2023-03-20T09:06:21;16.40;;;9.63;;
17658;SDS011;8948;51.534;8.262;2023-03-20T09:11:22;20.23;;;9.73;;
17658;SDS011;8948;51.534;8.262;2023-03-20T09:16:23;22.17;;;9.43;;
17658;SDS011;8948;51.534;8.262;2023-03-20T09:21:24;17.53;;;9.17;;
17658;SDS011;8948;51.534;8.262;2023-03-20T09:26:24;20.60;;;8.80;;
17658;SDS011;8948;51.534;8.262;2023-03-20T09:31:25;25.27;;;10.07;;
17658;SDS011;8948;51.534;8.262;2023-03-20T09:36:25;15.50;;;8.13;;
17658;SDS011;8948;51.534;8.262;2023-03-20T09:41:26;18.80;;;8.40;;
17658;SDS011;8948;51.534;8.262;2023-03-20T09:56:56;12.73;;;7.53;;
17658;SDS011;8948;51.534;8.262;2023-03-20T10:07:36;14.03;;;6.77;;
17658;SDS011;8948;51.534;8.262;2023-03-20T10:12:44;14.40;;;6.87;;
17658;SDS011;8948;51.534;8.262;2023-03-20T10:28:55;12.97;;;6.13;;
17658;SDS011;8948;51.534;8.262;2023-03-20T10:44:50;10.90;;;5.70;;
17658;SDS011;8948;51.534;8.262;2023-03-20T10:50:15;14.67;;;7.00;;
17658;SDS011;8948;51.534;8.262;2023-03-20T10:55:21;16.83;;;7.80;;
17658;SDS011;8948;51.534;8.262;2023-03-20T11:00:31;17.27;;;7.70;;
17658;SDS011;8948;51.534;8.262;2023-03-20T11:05:33;16.17;;;8.43;;
17658;SDS011;8948;51.534;8.262;2023-03-20T11:10:37;11.53;;;6.83;;
17658;SDS011;8948;51.534;8.262;2023-03-20T11:15:39;15.90;;;7.13;;
17658;SDS011;8948;51.534;8.262;2023-03-20T11:20:49;15.10;;;6.73;;
17658;SDS011;8948;51.534;8.262;2023-03-20T11:25:52;15.10;;;7.30;;
17658;SDS011;8948;51.534;8.262;2023-03-20T11:30:57;14.00;;;7.60;;
17658;SDS011;8948;51.534;8.262;2023-03-20T11:36:19;12.77;;;7.90;;
17658;SDS011;8948;51.534;8.262;2023-03-20T11:41:24;19.00;;;8.73;;
17658;SDS011;8948;51.534;8.262;2023-03-20T11:46:25;16.13;;;9.50;;
17658;SDS011;8948;51.534;8.262;2023-03-20T11:51:26;13.17;;;8.47;;
17658;SDS011;8948;51.534;8.262;2023-03-20T11:56:29;14.27;;;8.77;;
17658;SDS011;8948;51.534;8.262;2023-03-20T12:01:41;21.00;;;8.77;;
17658;SDS011;8948;51.534;8.262;2023-03-20T12:06:52;15.63;;;9.30;;
17658;SDS011;8948;51.534;8.262;2023-03-20T12:17:33;16.63;;;10.30;;
17658;SDS011;8948;51.534;8.262;2023-03-20T12:22:36;12.60;;;9.00;;
17658;SDS011;8948;51.534;8.262;2023-03-20T12:33:23;18.57;;;10.40;;
17658;SDS011;8948;51.534;8.262;2023-03-20T12:38:33;22.13;;;11.00;;
17658;SDS011;8948;51.534;8.262;2023-03-20T12:43:36;23.23;;;10.93;;
17658;SDS011;8948;51.534;8.262;2023-03-20T13:20:33;15.63;;;10.43;;
17658;SDS011;8948;51.534;8.262;2023-03-20T13:25:50;18.20;;;10.57;;
17658;SDS011;8948;51.534;8.262;2023-03-20T13:36:47;13.37;;;9.57;;
17658;SDS011;8948;51.534;8.262;2023-03-20T13:41:54;16.33;;;9.17;;
17658;SDS011;8948;51.534;8.262;2023-03-20T13:47:05;15.47;;;8.13;;
17658;SDS011;8948;51.534;8.262;2023-03-20T13:52:13;12.43;;;8.10;;
17658;SDS011;8948;51.534;8.262;2023-03-20T14:07:56;10.93;;;6.00;;
17658;SDS011;8948;51.534;8.262;2023-03-20T14:13:01;13.10;;;6.10;;
17658;SDS011;8948;51.534;8.262;2023-03-20T14:18:06;10.23;;;5.60;;
17658;SDS011;8948;51.534;8.262;2023-03-20T14:23:17;16.57;;;5.90;;
17658;SDS011;8948;51.534;8.262;2023-03-20T14:28:27;13.17;;;6.37;;
17658;SDS011;8948;51.534;8.262;2023-03-20T14:33:32;12.40;;;6.20;;
17658;SDS011;8948;51.534;8.262;2023-03-20T14:54:41;12.97;;;5.70;;
17658;SDS011;8948;51.534;8.262;2023-03-20T14:59:50;12.40;;;6.20;;
17658;SDS011;8948;51.534;8.262;2023-03-20T15:04:51;16.27;;;5.43;;
17658;SDS011;8948;51.534;8.262;2023-03-20T15:09:56;11.07;;;5.63;;
17658;SDS011;8948;51.534;8.262;2023-03-20T15:14:59;9.43;;;5.17;;
17658;SDS011;8948;51.534;8.262;2023-03-20T15:20:11;8.50;;;4.47;;
17658;SDS011;8948;51.534;8.262;2023-03-20T15:25:15;10.37;;;3.70;;
17658;SDS011;8948;51.534;8.262;2023-03-20T15:30:18;7.33;;;3.83;;
17658;SDS011;8948;51.534;8.262;2023-03-20T15:35:21;5.90;;;2.93;;
17658;SDS011;8948;51.534;8.262;2023-03-20T15:40:26;8.13;;;3.20;;
17658;SDS011;8948;51.534;8.262;2023-03-20T15:45:33;8.50;;;2.80;;
17658;SDS011;8948;51.534;8.262;2023-03-20T15:50:38;9.00;;;2.80;;
17658;SDS011;8948;51.534;8.262;2023-03-20T15:55:40;5.53;;;3.60;;
17658;SDS011;8948;51.534;8.262;2023-03-20T16:00:45;8.80;;;3.57;;
17658;SDS011;8948;51.534;8.262;2023-03-20T16:05:48;5.37;;;3.30;;
17658;SDS011;8948;51.534;8.262;2023-03-20T16:10:53;7.23;;;3.30;;
17658;SDS011;8948;51.534;8.262;2023-03-20T16:15:59;9.47;;;3.40;;
17658;SDS011;8948;51.534;8.262;2023-03-20T16:21:02;7.70;;;3.50;;
17658;SDS011;8948;51.534;8.262;2023-03-20T16:26:07;8.70;;;3.53;;
17658;SDS011;8948;51.534;8.262;2023-03-20T16:31:15;6.27;;;3.17;;
17658;SDS011;8948;51.534;8.262;2023-03-20T16:36:29;9.20;;;3.47;;
17658;SDS011;8948;51.534;8.262;2023-03-20T16:41:37;6.70;;;3.10;;
17658;SDS011;8948;51.534;8.262;2023-03-20T16:46:59;9.80;;;3.80;;
17658;SDS011;8948;51.534;8.262;2023-03-20T16:52:38;7.97;;;3.53;;
17658;SDS011;8948;51.534;8.262;2023-03-20T16:57:40;7.33;;;3.37;;
17658;SDS011;8948;51.534;8.262;2023-03-20T17:02:41;7.40;;;3.47;;
17658;SDS011;8948;51.534;8.262;2023-03-20T17:07:50;8.17;;;4.37;;
17658;SDS011;8948;51.534;8.262;2023-03-20T17:13:02;8.17;;;4.30;;
17658;SDS011;8948;51.534;8.262;2023-03-20T17:18:04;12.47;;;3.90;;
17658;SDS011;8948;51.534;8.262;2023-03-20T17:23:11;8.60;;;3.70;;
17658;SDS011;8948;51.534;8.262;2023-03-20T17:28:15;8.77;;;3.57;;
17658;SDS011;8948;51.534;8.262;2023-03-20T17:33:19;5.03;;;3.40;;
17658;SDS011;8948;51.534;8.262;2023-03-20T17:38:20;8.97;;;3.60;;
17658;SDS011;8948;51.534;8.262;2023-03-20T17:48:34;9.30;;;3.90;;
17658;SDS011;8948;51.534;8.262;2023-03-20T17:53:35;9.27;;;3.93;;
17658;SDS011;8948;51.534;8.262;2023-03-20T17:58:36;8.43;;;4.77;;
17658;SDS011;8948;51.534;8.262;2023-03-20T18:03:36;7.97;;;4.03;;
17658;SDS011;8948;51.534;8.262;2023-03-20T18:08:37;10.60;;;5.30;;
17658;SDS011;8948;51.534;8.262;2023-03-20T18:13:38;10.23;;;4.47;;
17658;SDS011;8948;51.534;8.262;2023-03-20T18:18:39;11.33;;;3.80;;
17658;SDS011;8948;51.534;8.262;2023-03-20T18:23:41;11.20;;;4.20;;
17658;SDS011;8948;51.534;8.262;2023-03-20T18:28:42;13.80;;;4.00;;
17658;SDS011;8948;51.534;8.262;2023-03-20T18:33:46;13.83;;;4.20;;
17658;SDS011;8948;51.534;8.262;2023-03-20T18:38:49;12.73;;;4.30;;
17658;SDS011;8948;51.534;8.262;2023-03-20T18:43:51;9.30;;;3.93;;
17658;SDS011;8948;51.534;8.262;2023-03-20T18:48:54;13.13;;;4.37;;
17658;SDS011;8948;51.534;8.262;2023-03-20T18:53:55;9.13;;;4.13;;
17658;SDS011;8948;51.534;8.262;2023-03-20T18:58:56;8.63;;;3.90;;
17658;SDS011;8948;51.534;8.262;2023-03-20T19:03:56;11.50;;;4.27;;
17658;SDS011;8948;51.534;8.262;2023-03-20T19:08:57;8.13;;;3.43;;
17658;SDS011;8948;51.534;8.262;2023-03-20T19:13:58;12.43;;;3.97;;
17658;SDS011;8948;51.534;8.262;2023-03-20T19:18:59;9.60;;;3.60;;
17658;SDS011;8948;51.534;8.262;2023-03-20T19:24:02;12.97;;;3.80;;
17658;SDS011;8948;51.534;8.262;2023-03-20T19:29:04;12.80;;;4.67;;
17658;SDS011;8948;51.534;8.262;2023-03-20T19:34:07;11.57;;;3.83;;
17658;SDS011;8948;51.534;8.262;2023-03-20T19:39:09;7.67;;;3.60;;
17658;SDS011;8948;51.534;8.262;2023-03-20T19:44:11;16.93;;;4.33;;
17658;SDS011;8948;51.534;8.262;2023-03-20T19:49:16;18.47;;;4.70;;
17658;SDS011;8948;51.534;8.262;2023-03-20T19:54:18;12.67;;;4.47;;
17658;SDS011;8948;51.534;8.262;2023-03-20T19:59:19;13.60;;;4.40;;
17658;SDS011;8948;51.534;8.262;2023-03-20T20:04:19;14.40;;;4.40;;
17658;SDS011;8948;51.534;8.262;2023-03-20T20:09:20;12.87;;;4.47;;
17658;SDS011;8948;51.534;8.262;2023-03-20T20:14:20;13.20;;;4.60;;
17658;SDS011;8948;51.534;8.262;2023-03-20T20:19:21;12.80;;;4.30;;
17658;SDS011;8948;51.534;8.262;2023-03-20T20:24:22;13.63;;;4.77;;
17658;SDS011;8948;51.534;8.262;2023-03-20T20:29:22;14.30;;;4.57;;
17658;SDS011;8948;51.534;8.262;2023-03-20T20:34:23;15.77;;;4.57;;
17658;SDS011;8948;51.534;8.262;2023-03-20T20:39:24;17.97;;;4.50;;
17658;SDS011;8948;51.534;8.262;2023-03-20T20:44:25;18.03;;;4.90;;
17658;SDS011;8948;51.534;8.262;2023-03-20T20:49:25;14.17;;;4.83;;
17658;SDS011;8948;51.534;8.262;2023-03-20T20:54:26;11.47;;;4.43;;
17658;SDS011;8948;51.534;8.262;2023-03-20T20:59:28;15.93;;;5.17;;
17658;SDS011;8948;51.534;8.262;2023-03-20T21:04:28;15.30;;;4.97;;
17658;SDS011;8948;51.534;8.262;2023-03-20T21:09:29;13.90;;;4.93;;
17658;SDS011;8948;51.534;8.262;2023-03-20T21:14:30;14.60;;;4.97;;
17658;SDS011;8948;51.534;8.262;2023-03-20T21:19:35;15.03;;;4.60;;
17658;SDS011;8948;51.534;8.262;2023-03-20T21:24:37;15.03;;;4.57;;
17658;SDS011;8948;51.534;8.262;2023-03-20T21:29:39;21.53;;;5.20;;
17658;SDS011;8948;51.534;8.262;2023-03-20T21:34:40;11.63;;;5.50;;
17658;SDS011;8948;51.534;8.262;2023-03-20T21:39:41;14.53;;;5.27;;
17658;SDS011;8948;51.534;8.262;2023-03-20T21:44:42;16.90;;;5.63;;
17658;SDS011;8948;51.534;8.262;2023-03-20T21:49:43;12.77;;;5.33;;
17658;SDS011;8948;51.534;8.262;2023-03-20T21:54:44;15.23;;;4.97;;
17658;SDS011;8948;51.534;8.262;2023-03-20T21:59:45;18.67;;;6.00;;
17658;SDS011;8948;51.534;8.262;2023-03-20T22:04:46;18.97;;;5.90;;
17658;SDS011;8948;51.534;8.262;2023-03-20T22:09:46;15.37;;;6.33;;
17658;SDS011;8948;51.534;8.262;2023-03-20T22:14:47;18.00;;;5.63;;
17658;SDS011;8948;51.534;8.262;2023-03-20T22:19:47;11.93;;;5.13;;
17658;SDS011;8948;51.534;8.262;2023-03-20T22:24:48;14.07;;;5.20;;
17658;SDS011;8948;51.534;8.262;2023-03-20T22:29:49;16.27;;;5.60;;
17658;SDS011;8948;51.534;8.262;2023-03-20T22:34:49;18.10;;;6.40;;
17658;SDS011;8948;51.534;8.262;2023-03-20T22:39:50;15.33;;;6.37;;
17658;SDS011;8948;51.534;8.262;2023-03-20T22:44:50;21.57;;;7.83;;
17658;SDS011;8948;51.534;8.262;2023-03-20T22:49:52;21.90;;;7.80;;
17658;SDS011;8948;51.534;8.262;2023-03-20T22:54:52;25.23;;;8.63;;
17658;SDS011;8948;51.534;8.262;2023-03-20T22:59:53;21.60;;;8.47;;
17658;SDS011;8948;51.534;8.262;2023-03-20T23:04:53;30.23;;;9.30;;
17658;SDS011;8948;51.534;8.262;2023-03-20T23:09:56;22.47;;;7.90;;
17658;SDS011;8948;51.534;8.262;2023-03-20T23:14:57;24.43;;;8.93;;
17658;SDS011;8948;51.534;8.262;2023-03-20T23:19:57;25.77;;;8.47;;
17658;SDS011;8948;51.534;8.262;2023-03-20T23:24:58;21.33;;;8.67;;
17658;SDS011;8948;51.534;8.262;2023-03-20T23:29:59;17.97;;;8.03;;
17658;SDS011;8948;51.534;8.262;2023-03-20T23:34:59;19.33;;;7.47;;
17658;SDS011;8948;51.534;8.262;2023-03-20T23:40:00;19.00;;;7.70;;
17658;SDS011;8948;51.534;8.262;2023-03-20T23:45:01;24.50;;;7.93;;
17658;SDS011;8948;51.534;8.262;2023-03-20T23:50:01;27.23;;;8.67;;
17658;SDS011;8948;51.534;8.262;2023-03-20T23:55:02;19.37;;;8.00;;
